createdAt,value
2023-01-08T00:01:11.046Z,10.20
2023-01-08T00:03:39.988Z,10.20
2023-01-08T00:06:09.935Z,10.10
2023-01-08T00:08:37.918Z,10.10
2023-01-08T00:11:05.909Z,10.10
2023-01-08T00:13:33.861Z,10.10
2023-01-08T00:16:04.888Z,10.00
2023-01-08T00:18:34.426Z,10.00
2023-01-08T00:21:02.782Z,10.00
2023-01-08T00:23:30.779Z,10.00
2023-01-08T00:25:58.666Z,9.90
2023-01-08T00:28:26.548Z,9.90
2023-01-08T00:30:54.494Z,9.80
2023-01-08T00:33:22.517Z,9.80
2023-01-08T00:35:51.782Z,9.80
2023-01-08T00:38:19.677Z,9.80
2023-01-08T00:40:49.534Z,9.70
2023-01-08T00:43:17.439Z,9.70
2023-01-08T00:45:45.340Z,9.60
2023-01-08T00:48:13.290Z,9.60
2023-01-08T00:50:41.155Z,9.70
2023-01-08T00:53:10.369Z,9.70
2023-01-08T00:55:38.175Z,9.70
2023-01-08T00:58:06.067Z,9.70
2023-01-08T01:00:34.094Z,9.70
2023-01-08T01:03:02.005Z,9.80
2023-01-08T01:05:29.952Z,9.70
2023-01-08T01:07:58.078Z,9.70
2023-01-08T01:10:27.323Z,9.70
2023-01-08T01:12:55.198Z,9.70
2023-01-08T01:15:23.008Z,9.60
2023-01-08T01:17:50.881Z,9.60
2023-01-08T01:20:18.815Z,9.60
2023-01-08T01:22:46.663Z,9.60
2023-01-08T01:25:14.619Z,9.60
2023-01-08T01:27:43.994Z,9.60
2023-01-08T01:30:12.779Z,9.60
2023-01-08T01:32:40.670Z,9.60
2023-01-08T01:35:09.283Z,9.60
2023-01-08T01:37:37.245Z,9.60
2023-01-08T01:40:06.035Z,9.60
2023-01-08T01:42:43.971Z,9.60
2023-01-08T01:45:22.472Z,9.60
2023-01-08T01:47:56.629Z,9.60
2023-01-08T01:50:28.805Z,9.50
2023-01-08T01:53:02.256Z,9.60
2023-01-08T01:55:31.596Z,9.50
2023-01-08T01:58:05.750Z,9.50
2023-01-08T02:00:35.766Z,9.50
2023-01-08T02:03:05.124Z,9.50
2023-01-08T02:05:44.946Z,9.50
2023-01-08T02:08:17.124Z,9.50
2023-01-08T02:10:52.851Z,9.40
2023-01-08T02:13:26.689Z,9.40
2023-01-08T02:15:59.532Z,9.40
2023-01-08T02:18:33.831Z,9.40
2023-01-08T02:21:05.980Z,9.40
2023-01-08T02:23:43.287Z,9.30
2023-01-08T02:26:19.872Z,9.30
2023-01-08T02:28:53.269Z,9.30
2023-01-08T02:31:23.436Z,9.30
2023-01-08T02:33:51.246Z,9.30
2023-01-08T02:36:35.035Z,9.30
2023-01-08T02:39:21.987Z,9.30
2023-01-08T02:42:07.442Z,9.30
2023-01-08T02:44:48.754Z,9.30
2023-01-08T02:47:23.480Z,9.30
2023-01-08T02:49:56.011Z,9.30
2023-01-08T02:52:27.139Z,9.30
2023-01-08T02:54:56.705Z,9.30
2023-01-08T02:57:26.962Z,9.30
2023-01-08T02:59:55.451Z,9.40
2023-01-08T03:02:23.882Z,9.40
2023-01-08T03:04:56.395Z,9.40
2023-01-08T03:07:24.468Z,9.40
2023-01-08T03:09:52.859Z,9.40
2023-01-08T03:12:29.068Z,9.40
2023-01-08T03:15:00.960Z,9.40
2023-01-08T03:17:33.627Z,9.40
2023-01-08T03:20:08.800Z,9.40
2023-01-08T03:22:40.087Z,9.50
2023-01-08T03:25:09.435Z,9.50
2023-01-08T03:27:43.914Z,9.40
2023-01-08T03:30:13.784Z,9.50
2023-01-08T03:32:44.386Z,9.50
2023-01-08T03:35:17.094Z,9.50
2023-01-08T03:37:50.467Z,9.50
2023-01-08T03:40:24.710Z,9.50
2023-01-08T03:42:54.099Z,9.50
2023-01-08T03:45:24.322Z,9.50
2023-01-08T03:47:53.138Z,9.50
2023-01-08T03:50:24.313Z,9.50
2023-01-08T03:52:52.221Z,9.40
2023-01-08T03:55:20.379Z,9.40
2023-01-08T03:57:48.261Z,9.50
2023-01-08T04:00:18.131Z,9.50
2023-01-08T04:02:46.025Z,9.50
2023-01-08T04:05:13.928Z,9.50
2023-01-08T04:07:41.799Z,9.50
2023-01-08T04:10:10.099Z,9.50
2023-01-08T04:12:37.960Z,9.50
2023-01-08T04:15:06.724Z,9.50
2023-01-08T04:17:35.995Z,9.50
2023-01-08T04:20:04.182Z,9.50
2023-01-08T04:22:32.070Z,9.50
2023-01-08T04:24:59.914Z,9.50
2023-01-08T04:27:27.811Z,9.50
2023-01-08T04:29:55.636Z,9.50
2023-01-08T04:32:23.489Z,9.50
2023-01-08T04:34:52.693Z,9.50
2023-01-08T04:37:20.571Z,9.50
2023-01-08T04:39:48.446Z,9.60
2023-01-08T04:42:16.260Z,9.60
2023-01-08T04:44:44.258Z,9.60
2023-01-08T04:47:12.092Z,9.60
2023-01-08T04:49:39.969Z,9.60
2023-01-08T04:52:09.189Z,9.50
2023-01-08T04:54:37.006Z,9.50
2023-01-08T04:57:04.963Z,9.50
2023-01-08T04:59:32.894Z,9.50
2023-01-08T05:02:01.065Z,9.50
2023-01-08T05:04:29.065Z,9.50
2023-01-08T05:06:56.960Z,9.50
2023-01-08T05:09:26.223Z,9.50
2023-01-08T05:11:54.135Z,9.40
2023-01-08T05:14:21.934Z,9.40
2023-01-08T05:16:49.812Z,9.40
2023-01-08T05:19:17.817Z,9.40
2023-01-08T05:21:45.709Z,9.30
2023-01-08T05:24:13.560Z,9.30
2023-01-08T05:26:42.822Z,9.30
2023-01-08T05:29:11.245Z,9.30
2023-01-08T05:31:39.218Z,9.20
2023-01-08T05:34:07.058Z,9.20
2023-01-08T05:36:34.933Z,9.20
2023-01-08T05:39:02.818Z,9.20
2023-01-08T05:41:30.835Z,9.20
2023-01-08T05:44:00.004Z,9.20
2023-01-08T05:46:27.964Z,9.20
2023-01-08T05:48:55.931Z,9.20
2023-01-08T05:51:23.756Z,9.20
2023-01-08T05:53:51.607Z,9.10
2023-01-08T05:56:19.541Z,9.10
2023-01-08T05:58:47.412Z,9.10
2023-01-08T06:01:16.993Z,9.10
2023-01-08T06:03:45.050Z,9.00
2023-01-08T06:06:14.178Z,9.00
2023-01-08T06:08:42.053Z,9.00
2023-01-08T06:11:12.097Z,8.90
2023-01-08T06:13:42.977Z,8.90
2023-01-08T06:16:11.610Z,8.90
2023-01-08T06:18:41.288Z,8.90
2023-01-08T06:21:09.282Z,8.80
2023-01-08T06:23:37.091Z,8.80
2023-01-08T06:26:05.131Z,8.70
2023-01-08T06:28:33.538Z,8.70
2023-01-08T06:31:02.565Z,8.70
2023-01-08T06:33:31.092Z,8.60
2023-01-08T06:36:04.235Z,8.60
2023-01-08T06:38:33.323Z,8.60
2023-01-08T06:41:04.680Z,8.60
2023-01-08T06:43:32.553Z,8.60
2023-01-08T06:46:04.344Z,8.60
2023-01-08T06:48:32.430Z,8.50
2023-01-08T06:51:02.519Z,8.50
2023-01-08T06:53:30.564Z,8.50
2023-01-08T06:55:58.827Z,8.50
2023-01-08T06:58:27.778Z,8.50
2023-01-08T07:00:55.859Z,8.40
2023-01-08T07:03:23.738Z,8.40
2023-01-08T07:05:51.737Z,8.30
2023-01-08T07:08:21.222Z,8.30
2023-01-08T07:10:49.129Z,8.30
2023-01-08T07:13:17.011Z,8.30
2023-01-08T07:15:45.081Z,8.20
2023-01-08T07:18:13.582Z,8.20
2023-01-08T07:20:41.689Z,8.20
2023-01-08T07:23:14.065Z,8.20
2023-01-08T07:25:43.314Z,8.20
2023-01-08T07:28:12.850Z,8.20
2023-01-08T07:30:41.037Z,8.10
2023-01-08T07:33:08.917Z,8.10
2023-01-08T07:35:38.282Z,8.10
2023-01-08T07:38:06.501Z,8.00
2023-01-08T07:40:34.438Z,8.00
2023-01-08T07:43:05.521Z,8.00
2023-01-08T07:45:33.611Z,8.00
2023-01-08T07:48:01.836Z,8.00
2023-01-08T07:50:29.819Z,8.00
2023-01-08T07:53:01.832Z,7.90
2023-01-08T07:55:31.271Z,7.90
2023-01-08T07:57:59.160Z,7.90
2023-01-08T08:00:28.615Z,7.90
2023-01-08T08:02:56.651Z,7.90
2023-01-08T08:05:24.602Z,7.90
2023-01-08T08:07:52.572Z,7.90
2023-01-08T08:10:20.471Z,7.90
2023-01-08T08:12:48.360Z,7.90
2023-01-08T08:15:16.629Z,7.90
2023-01-08T08:17:47.878Z,7.80
2023-01-08T08:20:16.397Z,7.90
2023-01-08T08:22:44.416Z,7.90
2023-01-08T08:25:14.964Z,7.90
2023-01-08T08:27:43.253Z,7.90
2023-01-08T08:30:12.629Z,7.80
2023-01-08T08:32:40.542Z,7.80
2023-01-08T08:35:10.532Z,7.90
2023-01-08T08:37:38.495Z,7.90
2023-01-08T08:40:07.710Z,7.90
2023-01-08T08:42:35.910Z,7.90
2023-01-08T08:45:04.021Z,7.90
2023-01-08T08:47:32.063Z,7.90
2023-01-08T08:50:00.055Z,7.90
2023-01-08T08:52:30.596Z,7.90
2023-01-08T08:54:58.504Z,7.90
2023-01-08T08:57:27.456Z,7.90
2023-01-08T08:59:55.439Z,7.90
2023-01-08T09:02:23.502Z,7.90
2023-01-08T09:04:51.416Z,7.90
2023-01-08T09:07:19.303Z,7.90
2023-01-08T09:09:48.579Z,7.90
2023-01-08T09:12:16.495Z,7.90
2023-01-08T09:14:44.411Z,7.90
2023-01-08T09:17:12.356Z,7.90
2023-01-08T09:19:40.218Z,7.90
2023-01-08T09:22:08.056Z,8.00
2023-01-08T09:24:36.410Z,8.00
2023-01-08T09:27:05.751Z,8.00
2023-01-08T09:29:33.944Z,8.00
2023-01-08T09:32:02.161Z,8.00
2023-01-08T09:34:31.673Z,8.00
2023-01-08T09:36:59.763Z,8.10
2023-01-08T09:39:27.841Z,8.10
2023-01-08T09:41:57.732Z,8.20
2023-01-08T09:44:30.866Z,8.20
2023-01-08T09:46:59.426Z,8.20
2023-01-08T09:49:38.686Z,8.20
2023-01-08T09:52:06.760Z,8.20
2023-01-08T09:54:34.779Z,8.20
2023-01-08T09:57:02.928Z,8.30
2023-01-08T09:59:32.483Z,8.30
2023-01-08T10:02:00.747Z,8.30
2023-01-08T10:04:31.329Z,8.30
2023-01-08T10:07:03.427Z,8.30
2023-01-08T10:09:33.479Z,8.30
2023-01-08T10:12:04.457Z,8.30
2023-01-08T10:14:37.518Z,8.30
2023-01-08T10:17:13.809Z,8.40
2023-01-08T10:19:41.624Z,8.40
2023-01-08T10:22:16.099Z,8.40
2023-01-08T10:24:44.426Z,8.40
2023-01-08T10:27:15.488Z,8.40
2023-01-08T10:29:45.766Z,8.40
2023-01-08T10:32:16.959Z,8.40
2023-01-08T10:34:48.026Z,8.50
2023-01-08T10:37:32.492Z,8.50
2023-01-08T10:40:08.747Z,8.50
2023-01-08T10:42:37.447Z,8.60
2023-01-08T10:45:13.230Z,8.60
2023-01-08T10:47:41.187Z,8.70
2023-01-08T10:50:20.540Z,8.70
2023-01-08T10:52:54.617Z,8.80
2023-01-08T10:55:27.782Z,8.80
2023-01-08T10:58:00.539Z,8.80
2023-01-08T11:00:31.949Z,8.80
2023-01-08T11:03:02.777Z,8.80
2023-01-08T11:05:32.897Z,8.80
2023-01-08T11:08:02.751Z,8.80
2023-01-08T11:10:31.202Z,8.90
2023-01-08T11:13:00.769Z,8.90
2023-01-08T11:15:33.798Z,9.00
2023-01-08T11:18:17.606Z,9.00
2023-01-08T11:20:46.342Z,9.10
2023-01-08T11:23:18.488Z,9.20
2023-01-08T11:25:52.192Z,9.20
2023-01-08T11:28:27.964Z,9.20
2023-01-08T11:31:04.005Z,9.30
2023-01-08T11:33:35.272Z,9.30
2023-01-08T11:36:12.003Z,9.30
2023-01-08T11:38:40.599Z,9.30
2023-01-08T11:41:21.431Z,9.40
2023-01-08T11:44:11.351Z,9.40
2023-01-08T11:46:46.505Z,9.50
2023-01-08T11:49:45.754Z,9.50
2023-01-08T11:52:35.944Z,9.60
2023-01-08T11:55:20.374Z,9.60
2023-01-08T11:58:05.376Z,9.60
2023-01-08T12:00:44.134Z,9.60
2023-01-08T12:03:22.889Z,9.70
2023-01-08T12:05:57.420Z,9.60
2023-01-08T12:08:34.438Z,9.60
2023-01-08T12:11:12.035Z,9.60
2023-01-08T12:14:04.149Z,9.60
2023-01-08T12:16:47.501Z,9.60
2023-01-08T12:19:24.692Z,9.60
2023-01-08T12:22:08.820Z,9.60
2023-01-08T12:24:56.509Z,9.60
2023-01-08T12:27:55.676Z,9.60
2023-01-08T12:30:33.584Z,9.60
2023-01-08T12:33:05.234Z,9.60
2023-01-08T12:35:39.849Z,9.60
2023-01-08T12:38:12.907Z,9.60
2023-01-08T12:40:43.266Z,9.60
2023-01-08T12:43:18.725Z,9.60
2023-01-08T12:45:49.613Z,9.60
2023-01-08T12:48:21.500Z,9.60
2023-01-08T12:51:00.762Z,9.70
2023-01-08T12:53:44.723Z,9.70
2023-01-08T12:56:17.297Z,9.70
2023-01-08T12:59:00.598Z,9.70
2023-01-08T13:01:37.134Z,9.70
2023-01-08T13:04:07.878Z,9.70
2023-01-08T13:06:37.582Z,9.70
2023-01-08T13:09:05.875Z,9.70
2023-01-08T13:11:37.456Z,9.70
2023-01-08T13:14:07.236Z,9.70
2023-01-08T13:16:39.494Z,9.70
2023-01-08T13:19:21.295Z,9.70
2023-01-08T13:21:55.363Z,9.80
2023-01-08T13:24:29.896Z,9.70
2023-01-08T13:26:58.429Z,9.80
2023-01-08T13:29:38.746Z,9.80
2023-01-08T13:32:21.744Z,9.80
2023-01-08T13:34:49.726Z,9.80
2023-01-08T13:37:27.900Z,9.80
2023-01-08T13:39:56.070Z,9.80
2023-01-08T13:42:28.474Z,9.80
2023-01-08T13:45:02.107Z,9.80
2023-01-08T13:47:33.059Z,9.80
2023-01-08T13:50:03.743Z,9.80
2023-01-08T13:52:37.471Z,9.80
2023-01-08T13:55:12.989Z,9.80
2023-01-08T13:57:44.612Z,9.80
2023-01-08T14:00:22.378Z,9.80
2023-01-08T14:02:51.050Z,9.80
2023-01-08T14:05:27.623Z,9.80
2023-01-08T14:07:58.760Z,9.80
2023-01-08T14:10:28.582Z,9.80
2023-01-08T14:13:05.972Z,9.80
2023-01-08T14:15:35.866Z,9.80
2023-01-08T14:18:05.898Z,9.80
2023-01-08T14:20:36.679Z,9.80
2023-01-08T14:23:12.173Z,9.80
2023-01-08T14:25:42.021Z,9.80
2023-01-08T14:28:17.698Z,9.80
2023-01-08T14:30:49.977Z,9.80
2023-01-08T14:33:20.294Z,9.80
2023-01-08T14:35:51.121Z,9.90
2023-01-08T14:38:20.374Z,9.80
2023-01-08T14:40:52.849Z,9.80
2023-01-08T14:43:21.898Z,9.80
2023-01-08T14:45:52.357Z,9.80
2023-01-08T14:48:24.147Z,9.80
2023-01-08T14:51:04.143Z,9.70
2023-01-08T14:53:36.927Z,9.70
2023-01-08T14:56:06.641Z,9.70
2023-01-08T14:58:38.144Z,9.60
2023-01-08T15:01:09.923Z,9.60
2023-01-08T15:03:39.490Z,9.60
2023-01-08T15:06:11.184Z,9.60
2023-01-08T15:08:42.134Z,9.60
2023-01-08T15:11:22.718Z,9.60
2023-01-08T15:13:52.908Z,9.60
2023-01-08T15:16:29.555Z,9.50
2023-01-08T15:19:03.717Z,9.50
2023-01-08T15:21:31.973Z,9.50
2023-01-08T15:24:02.325Z,9.40
2023-01-08T15:26:30.488Z,9.40
2023-01-08T15:29:00.507Z,9.40
2023-01-08T15:31:30.418Z,9.40
2023-01-08T15:33:59.529Z,9.30
2023-01-08T15:36:27.796Z,9.30
2023-01-08T15:38:55.629Z,9.30
2023-01-08T15:41:42.278Z,9.20
2023-01-08T15:44:12.792Z,9.20
2023-01-08T15:46:40.699Z,9.20
2023-01-08T15:49:08.547Z,9.10
2023-01-08T15:51:42.108Z,9.10
2023-01-08T15:54:12.700Z,9.10
2023-01-08T15:56:42.509Z,9.10
2023-01-08T15:59:11.366Z,9.00
2023-01-08T16:01:39.582Z,9.00
2023-01-08T16:04:07.592Z,9.00
2023-01-08T16:06:36.220Z,9.00
2023-01-08T16:09:04.508Z,9.00
2023-01-08T16:11:32.326Z,8.90
2023-01-08T16:14:01.538Z,8.90
2023-01-08T16:16:29.509Z,8.90
2023-01-08T16:18:57.558Z,8.90
2023-01-08T16:21:25.369Z,8.80
2023-01-08T16:23:53.691Z,8.80
2023-01-08T16:26:21.591Z,8.80
2023-01-08T16:28:49.516Z,8.80
2023-01-08T16:31:18.752Z,8.70
2023-01-08T16:33:46.642Z,8.70
2023-01-08T16:36:14.551Z,8.70
2023-01-08T16:38:42.421Z,8.70
2023-01-08T16:41:10.663Z,8.60
2023-01-08T16:43:41.665Z,8.60
2023-01-08T16:46:13.814Z,8.60
2023-01-08T16:48:43.434Z,8.60
2023-01-08T16:51:12.289Z,8.50
2023-01-08T16:53:40.739Z,8.50
2023-01-08T16:56:10.112Z,8.50
2023-01-08T16:58:38.468Z,8.50
2023-01-08T17:01:09.791Z,8.50
2023-01-08T17:03:38.178Z,8.50
2023-01-08T17:06:09.430Z,8.40
2023-01-08T17:08:40.076Z,8.40
2023-01-08T17:11:10.261Z,8.40
2023-01-08T17:13:38.383Z,8.40
2023-01-08T17:16:07.680Z,8.40
2023-01-08T17:18:35.769Z,8.40
2023-01-08T17:21:03.921Z,8.40
2023-01-08T17:23:33.143Z,8.40
2023-01-08T17:26:04.133Z,8.40
2023-01-08T17:28:34.884Z,8.40
2023-01-08T17:31:03.885Z,8.40
2023-01-08T17:33:31.897Z,8.30
2023-01-08T17:35:59.821Z,8.30
2023-01-08T17:38:28.447Z,8.30
2023-01-08T17:41:02.184Z,8.30
2023-01-08T17:43:34.218Z,8.30
2023-01-08T17:46:03.725Z,8.40
2023-01-08T17:48:32.073Z,8.40
2023-01-08T17:51:00.974Z,8.40
2023-01-08T17:53:30.140Z,8.40
2023-01-08T17:56:05.629Z,8.40
2023-01-08T17:58:33.634Z,8.50
2023-01-08T18:01:01.685Z,8.50
2023-01-08T18:03:29.612Z,8.50
2023-01-08T18:05:57.521Z,8.50
2023-01-08T18:08:25.707Z,8.50
2023-01-08T18:10:53.634Z,8.50
2023-01-08T18:13:22.895Z,8.60
2023-01-08T18:15:50.851Z,8.60
2023-01-08T18:18:18.755Z,8.60
2023-01-08T18:20:46.658Z,8.60
2023-01-08T18:23:14.482Z,8.60
2023-01-08T18:25:42.506Z,8.70
2023-01-08T18:28:10.374Z,8.70
2023-01-08T18:30:39.678Z,8.70
2023-01-08T18:33:07.560Z,8.70
2023-01-08T18:35:35.537Z,8.70
2023-01-08T18:38:03.495Z,8.70
2023-01-08T18:40:31.411Z,8.70
2023-01-08T18:42:59.358Z,8.70
2023-01-08T18:45:29.283Z,8.70
2023-01-08T18:47:58.572Z,8.60
2023-01-08T18:50:26.471Z,8.60
2023-01-08T18:52:54.298Z,8.60
2023-01-08T18:55:22.217Z,8.60
2023-01-08T18:57:51.176Z,8.60
2023-01-08T19:00:19.835Z,8.50
2023-01-08T19:02:47.807Z,8.50
2023-01-08T19:05:17.711Z,8.50
2023-01-08T19:07:45.741Z,8.50
2023-01-08T19:10:14.142Z,8.40
2023-01-08T19:12:42.012Z,8.40
2023-01-08T19:15:10.794Z,8.40
2023-01-08T19:17:38.691Z,8.40
2023-01-08T19:20:07.437Z,8.40
2023-01-08T19:22:36.602Z,8.40
2023-01-08T19:25:05.359Z,8.40
2023-01-08T19:27:36.019Z,8.40
2023-01-08T19:30:04.612Z,8.30
2023-01-08T19:32:32.525Z,8.30
2023-01-08T19:35:01.260Z,8.30
2023-01-08T19:37:29.224Z,8.30
2023-01-08T19:40:01.477Z,8.30
2023-01-08T19:42:47.342Z,8.20
2023-01-08T19:45:15.401Z,8.20
2023-01-08T19:47:43.655Z,8.20
2023-01-08T19:50:12.825Z,8.20
2023-01-08T19:52:40.848Z,8.20
2023-01-08T19:55:10.821Z,8.20
2023-01-08T19:57:38.858Z,8.20
2023-01-08T20:00:08.139Z,8.20
2023-01-08T20:02:36.152Z,8.20
2023-01-08T20:05:04.311Z,8.20
2023-01-08T20:07:32.315Z,8.20
2023-01-08T20:10:01.424Z,8.20
2023-01-08T20:12:30.849Z,8.20
2023-01-08T20:14:58.804Z,8.20
2023-01-08T20:17:26.720Z,8.20
2023-01-08T20:19:54.683Z,8.20
2023-01-08T20:22:22.652Z,8.20
2023-01-08T20:24:50.809Z,8.20
2023-01-08T20:27:18.727Z,8.20
2023-01-08T20:29:48.096Z,8.20
2023-01-08T20:32:15.963Z,8.20
2023-01-08T20:34:43.858Z,8.20
2023-01-08T20:37:11.916Z,8.20
2023-01-08T20:39:40.185Z,8.20
2023-01-08T20:42:08.572Z,8.20
2023-01-08T20:44:36.688Z,8.20
2023-01-08T20:47:06.127Z,8.20
2023-01-08T20:49:34.088Z,8.20
2023-01-08T20:52:02.384Z,8.20
2023-01-08T20:54:31.208Z,8.20
2023-01-08T20:57:00.815Z,8.20
2023-01-08T20:59:29.617Z,8.20
2023-01-08T21:01:57.767Z,8.20
2023-01-08T21:04:27.230Z,8.20
2023-01-08T21:06:55.283Z,8.20
2023-01-08T21:09:23.223Z,8.20
2023-01-08T21:11:51.302Z,8.20
2023-01-08T21:14:19.174Z,8.20
2023-01-08T21:16:47.148Z,8.10
2023-01-08T21:19:15.387Z,8.10
2023-01-08T21:21:45.782Z,8.10
2023-01-08T21:24:14.657Z,8.10
2023-01-08T21:26:42.661Z,8.10
2023-01-08T21:29:11.813Z,8.00
2023-01-08T21:31:40.258Z,8.00
2023-01-08T21:34:09.331Z,8.00
2023-01-08T21:36:39.003Z,8.00
2023-01-08T21:39:08.540Z,8.00
2023-01-08T21:41:54.202Z,8.00
2023-01-08T21:44:42.097Z,8.00
2023-01-08T21:47:12.169Z,8.00
2023-01-08T21:49:40.171Z,8.10
2023-01-08T21:52:25.959Z,8.10
2023-01-08T21:54:56.190Z,8.10
2023-01-08T21:57:25.417Z,8.10
2023-01-08T21:59:53.295Z,8.10
2023-01-08T22:02:23.302Z,8.10
2023-01-08T22:04:54.420Z,8.20
2023-01-08T22:07:22.554Z,8.20
2023-01-08T22:09:50.561Z,8.20
2023-01-08T22:12:20.436Z,8.20
2023-01-08T22:14:48.391Z,8.20
2023-01-08T22:17:16.697Z,8.20
2023-01-08T22:19:44.645Z,8.20
2023-01-08T22:22:13.068Z,8.30
2023-01-08T22:24:41.655Z,8.30
2023-01-08T22:27:09.719Z,8.30
2023-01-08T22:29:39.259Z,8.30
2023-01-08T22:32:07.207Z,8.20
2023-01-08T22:34:35.707Z,8.20
2023-01-08T22:37:04.015Z,8.20
2023-01-08T22:39:32.326Z,8.20
2023-01-08T22:42:00.153Z,8.20
2023-01-08T22:44:28.134Z,8.20
2023-01-08T22:46:59.208Z,8.20
2023-01-08T22:49:27.108Z,8.20
2023-01-08T22:51:55.023Z,8.20
2023-01-08T22:54:23.065Z,8.20
2023-01-08T22:56:50.908Z,8.10
2023-01-08T22:59:19.106Z,8.10
2023-01-08T23:01:47.084Z,8.10
2023-01-08T23:04:16.417Z,8.10
2023-01-08T23:06:44.313Z,8.10
2023-01-08T23:09:12.206Z,8.10
2023-01-08T23:11:40.070Z,8.10
2023-01-08T23:14:07.990Z,8.10
2023-01-08T23:16:36.040Z,8.10
2023-01-08T23:19:03.988Z,8.10
2023-01-08T23:21:33.197Z,8.10
2023-01-08T23:24:01.058Z,8.10
2023-01-08T23:26:30.795Z,8.00
2023-01-08T23:28:59.344Z,8.00
2023-01-08T23:31:29.143Z,8.00
2023-01-08T23:33:57.665Z,8.00
2023-01-08T23:36:25.631Z,8.00
2023-01-08T23:38:56.630Z,8.00
2023-01-08T23:41:32.112Z,8.00
2023-01-08T23:44:03.757Z,8.00
2023-01-08T23:46:31.794Z,8.00
2023-01-08T23:48:59.934Z,8.00
2023-01-08T23:51:27.839Z,8.00
2023-01-08T23:53:57.195Z,8.00
2023-01-08T23:56:25.315Z,8.00
2023-01-08T23:58:53.908Z,8.00
